sensor_id;sensor_type;location;lat;lon;timestamp;P1;durP1;ratioP1;P2;durP2;ratioP2
1837;SDS011;918;50.796;6.772;2023-03-31T00:00:39;4.77;;;1.60;;
1837;SDS011;918;50.796;6.772;2023-03-31T00:03:05;2.93;;;1.30;;
1837;SDS011;918;50.796;6.772;2023-03-31T00:05:35;3.90;;;1.40;;
1837;SDS011;918;50.796;6.772;2023-03-31T00:08:01;3.10;;;1.57;;
1837;SDS011;918;50.796;6.772;2023-03-31T00:10:27;3.77;;;1.50;;
1837;SDS011;918;50.796;6.772;2023-03-31T00:12:53;2.40;;;1.93;;
1837;SDS011;918;50.796;6.772;2023-03-31T00:15:18;4.13;;;1.10;;
1837;SDS011;918;50.796;6.772;2023-03-31T00:17:44;2.90;;;1.40;;
1837;SDS011;918;50.796;6.772;2023-03-31T00:20:11;3.63;;;1.90;;
1837;SDS011;918;50.796;6.772;2023-03-31T00:22:37;6.20;;;1.80;;
1837;SDS011;918;50.796;6.772;2023-03-31T00:25:04;2.40;;;1.30;;
1837;SDS011;918;50.796;6.772;2023-03-31T00:27:29;3.63;;;1.73;;
1837;SDS011;918;50.796;6.772;2023-03-31T00:29:55;3.23;;;2.00;;
1837;SDS011;918;50.796;6.772;2023-03-31T00:32:20;3.27;;;1.80;;
1837;SDS011;918;50.796;6.772;2023-03-31T00:34:45;4.43;;;2.00;;
1837;SDS011;918;50.796;6.772;2023-03-31T00:37:10;4.73;;;1.43;;
1837;SDS011;918;50.796;6.772;2023-03-31T00:39:40;2.00;;;1.80;;
1837;SDS011;918;50.796;6.772;2023-03-31T00:42:06;3.40;;;1.40;;
1837;SDS011;918;50.796;6.772;2023-03-31T00:44:32;2.93;;;1.50;;
1837;SDS011;918;50.796;6.772;2023-03-31T00:47:12;1.73;;;1.17;;
1837;SDS011;918;50.796;6.772;2023-03-31T00:49:46;2.50;;;1.57;;
1837;SDS011;918;50.796;6.772;2023-03-31T00:54:50;2.03;;;1.43;;
1837;SDS011;918;50.796;6.772;2023-03-31T00:57:18;3.13;;;1.60;;
1837;SDS011;918;50.796;6.772;2023-03-31T00:59:46;3.50;;;1.97;;
1837;SDS011;918;50.796;6.772;2023-03-31T01:02:16;2.70;;;1.43;;
1837;SDS011;918;50.796;6.772;2023-03-31T01:04:45;4.60;;;1.70;;
1837;SDS011;918;50.796;6.772;2023-03-31T01:09:40;2.83;;;1.50;;
1837;SDS011;918;50.796;6.772;2023-03-31T01:12:11;2.73;;;1.37;;
1837;SDS011;918;50.796;6.772;2023-03-31T01:14:37;4.40;;;1.90;;
1837;SDS011;918;50.796;6.772;2023-03-31T01:17:02;1.50;;;1.40;;
1837;SDS011;918;50.796;6.772;2023-03-31T01:19:35;3.30;;;1.67;;
1837;SDS011;918;50.796;6.772;2023-03-31T01:42:16;6.30;;;3.00;;
1837;SDS011;918;50.796;6.772;2023-03-31T01:47:32;3.60;;;2.20;;
1837;SDS011;918;50.796;6.772;2023-03-31T01:50:10;7.77;;;2.53;;
1837;SDS011;918;50.796;6.772;2023-03-31T01:52:47;10.03;;;2.33;;
1837;SDS011;918;50.796;6.772;2023-03-31T01:58:11;4.80;;;2.20;;
1837;SDS011;918;50.796;6.772;2023-03-31T02:00:44;5.43;;;2.80;;
1837;SDS011;918;50.796;6.772;2023-03-31T02:03:36;5.17;;;2.60;;
1837;SDS011;918;50.796;6.772;2023-03-31T02:06:11;9.33;;;2.83;;
1837;SDS011;918;50.796;6.772;2023-03-31T02:08:42;7.93;;;3.07;;
1837;SDS011;918;50.796;6.772;2023-03-31T02:11:10;6.00;;;2.40;;
1837;SDS011;918;50.796;6.772;2023-03-31T02:13:35;6.40;;;2.50;;
1837;SDS011;918;50.796;6.772;2023-03-31T02:16:04;3.23;;;2.13;;
1837;SDS011;918;50.796;6.772;2023-03-31T02:18:31;6.40;;;2.57;;
1837;SDS011;918;50.796;6.772;2023-03-31T02:21:02;7.00;;;2.30;;
1837;SDS011;918;50.796;6.772;2023-03-31T02:23:29;4.73;;;2.77;;
1837;SDS011;918;50.796;6.772;2023-03-31T02:26:01;5.27;;;2.87;;
1837;SDS011;918;50.796;6.772;2023-03-31T02:28:28;3.70;;;2.40;;
1837;SDS011;918;50.796;6.772;2023-03-31T02:31:10;7.60;;;2.50;;
1837;SDS011;918;50.796;6.772;2023-03-31T02:33:41;2.90;;;2.10;;
1837;SDS011;918;50.796;6.772;2023-03-31T02:36:07;3.20;;;2.13;;
1837;SDS011;918;50.796;6.772;2023-03-31T02:38:34;7.20;;;2.53;;
1837;SDS011;918;50.796;6.772;2023-03-31T02:41:01;8.53;;;2.10;;
1837;SDS011;918;50.796;6.772;2023-03-31T02:43:26;4.17;;;2.20;;
1837;SDS011;918;50.796;6.772;2023-03-31T02:45:51;7.50;;;2.30;;
1837;SDS011;918;50.796;6.772;2023-03-31T02:48:18;5.70;;;1.97;;
1837;SDS011;918;50.796;6.772;2023-03-31T02:50:56;5.80;;;2.30;;
1837;SDS011;918;50.796;6.772;2023-03-31T02:53:31;5.07;;;1.77;;
1837;SDS011;918;50.796;6.772;2023-03-31T02:58:50;4.53;;;1.80;;
1837;SDS011;918;50.796;6.772;2023-03-31T03:01:25;6.23;;;2.43;;
1837;SDS011;918;50.796;6.772;2023-03-31T03:14:35;2.90;;;1.60;;
1837;SDS011;918;50.796;6.772;2023-03-31T03:17:08;5.90;;;1.70;;
1837;SDS011;918;50.796;6.772;2023-03-31T03:19:35;1.93;;;1.23;;
1837;SDS011;918;50.796;6.772;2023-03-31T03:22:01;5.17;;;1.60;;
1837;SDS011;918;50.796;6.772;2023-03-31T03:24:26;5.90;;;1.13;;
1837;SDS011;918;50.796;6.772;2023-03-31T03:26:53;4.53;;;1.40;;
1837;SDS011;918;50.796;6.772;2023-03-31T03:29:19;3.80;;;2.20;;
1837;SDS011;918;50.796;6.772;2023-03-31T03:31:45;5.20;;;2.00;;
1837;SDS011;918;50.796;6.772;2023-03-31T03:34:10;1.73;;;1.30;;
1837;SDS011;918;50.796;6.772;2023-03-31T03:36:36;3.43;;;1.90;;
1837;SDS011;918;50.796;6.772;2023-03-31T03:39:02;2.87;;;1.60;;
1837;SDS011;918;50.796;6.772;2023-03-31T03:41:28;2.13;;;1.10;;
1837;SDS011;918;50.796;6.772;2023-03-31T03:43:53;3.63;;;1.40;;
1837;SDS011;918;50.796;6.772;2023-03-31T03:46:18;3.60;;;1.33;;
1837;SDS011;918;50.796;6.772;2023-03-31T03:48:44;1.83;;;1.47;;
1837;SDS011;918;50.796;6.772;2023-03-31T03:51:10;5.63;;;1.60;;
1837;SDS011;918;50.796;6.772;2023-03-31T03:53:35;3.00;;;1.30;;
1837;SDS011;918;50.796;6.772;2023-03-31T03:56:00;3.43;;;1.30;;
1837;SDS011;918;50.796;6.772;2023-03-31T03:58:26;2.80;;;1.50;;
1837;SDS011;918;50.796;6.772;2023-03-31T04:00:51;3.70;;;1.30;;
1837;SDS011;918;50.796;6.772;2023-03-31T04:03:17;1.30;;;0.97;;
1837;SDS011;918;50.796;6.772;2023-03-31T04:05:42;2.23;;;1.63;;
1837;SDS011;918;50.796;6.772;2023-03-31T04:08:07;1.47;;;1.10;;
1837;SDS011;918;50.796;6.772;2023-03-31T04:10:33;1.13;;;1.03;;
1837;SDS011;918;50.796;6.772;2023-03-31T04:12:59;4.00;;;1.23;;
1837;SDS011;918;50.796;6.772;2023-03-31T04:15:24;1.90;;;0.97;;
1837;SDS011;918;50.796;6.772;2023-03-31T04:17:49;1.67;;;1.07;;
1837;SDS011;918;50.796;6.772;2023-03-31T04:20:18;4.97;;;1.43;;
1837;SDS011;918;50.796;6.772;2023-03-31T04:22:44;1.37;;;1.00;;
1837;SDS011;918;50.796;6.772;2023-03-31T04:25:11;4.43;;;1.30;;
1837;SDS011;918;50.796;6.772;2023-03-31T04:27:43;2.57;;;1.13;;
1837;SDS011;918;50.796;6.772;2023-03-31T04:30:19;1.47;;;1.27;;
1837;SDS011;918;50.796;6.772;2023-03-31T04:32:49;1.73;;;1.10;;
1837;SDS011;918;50.796;6.772;2023-03-31T04:35:16;1.43;;;1.00;;
1837;SDS011;918;50.796;6.772;2023-03-31T04:37:42;1.60;;;1.20;;
1837;SDS011;918;50.796;6.772;2023-03-31T04:40:08;3.40;;;1.20;;
1837;SDS011;918;50.796;6.772;2023-03-31T04:42:34;2.53;;;1.20;;
1837;SDS011;918;50.796;6.772;2023-03-31T04:45:00;3.37;;;1.83;;
1837;SDS011;918;50.796;6.772;2023-03-31T04:47:25;2.57;;;1.70;;
1837;SDS011;918;50.796;6.772;2023-03-31T04:49:50;2.40;;;1.30;;
1837;SDS011;918;50.796;6.772;2023-03-31T04:52:16;1.43;;;1.20;;
1837;SDS011;918;50.796;6.772;2023-03-31T04:54:41;2.80;;;1.27;;
1837;SDS011;918;50.796;6.772;2023-03-31T04:57:06;1.20;;;0.80;;
1837;SDS011;918;50.796;6.772;2023-03-31T04:59:32;1.87;;;1.10;;
1837;SDS011;918;50.796;6.772;2023-03-31T05:01:57;3.40;;;1.60;;
1837;SDS011;918;50.796;6.772;2023-03-31T05:04:22;3.23;;;1.97;;
1837;SDS011;918;50.796;6.772;2023-03-31T05:06:47;1.93;;;1.30;;
1837;SDS011;918;50.796;6.772;2023-03-31T05:09:13;1.57;;;1.03;;
1837;SDS011;918;50.796;6.772;2023-03-31T05:11:38;1.70;;;1.13;;
1837;SDS011;918;50.796;6.772;2023-03-31T05:14:03;3.07;;;1.10;;
1837;SDS011;918;50.796;6.772;2023-03-31T05:16:28;1.83;;;1.03;;
1837;SDS011;918;50.796;6.772;2023-03-31T05:18:54;1.33;;;1.23;;
1837;SDS011;918;50.796;6.772;2023-03-31T05:21:19;1.20;;;1.10;;
1837;SDS011;918;50.796;6.772;2023-03-31T05:23:45;2.47;;;0.80;;
1837;SDS011;918;50.796;6.772;2023-03-31T05:26:10;1.90;;;0.87;;
1837;SDS011;918;50.796;6.772;2023-03-31T05:28:36;1.10;;;0.90;;
1837;SDS011;918;50.796;6.772;2023-03-31T05:31:02;0.87;;;0.87;;
1837;SDS011;918;50.796;6.772;2023-03-31T05:33:29;3.50;;;1.10;;
1837;SDS011;918;50.796;6.772;2023-03-31T05:35:54;1.20;;;1.20;;
1837;SDS011;918;50.796;6.772;2023-03-31T05:38:20;2.30;;;0.70;;
1837;SDS011;918;50.796;6.772;2023-03-31T05:40:46;2.67;;;1.03;;
1837;SDS011;918;50.796;6.772;2023-03-31T05:43:11;2.80;;;0.83;;
1837;SDS011;918;50.796;6.772;2023-03-31T05:45:37;2.10;;;0.70;;
1837;SDS011;918;50.796;6.772;2023-03-31T05:48:02;0.60;;;0.60;;
1837;SDS011;918;50.796;6.772;2023-03-31T05:50:27;1.30;;;0.70;;
1837;SDS011;918;50.796;6.772;2023-03-31T05:52:52;1.23;;;0.80;;
1837;SDS011;918;50.796;6.772;2023-03-31T05:55:18;1.37;;;0.87;;
1837;SDS011;918;50.796;6.772;2023-03-31T05:57:43;1.83;;;0.97;;
1837;SDS011;918;50.796;6.772;2023-03-31T06:00:09;3.30;;;1.00;;
1837;SDS011;918;50.796;6.772;2023-03-31T06:02:35;1.60;;;0.83;;
1837;SDS011;918;50.796;6.772;2023-03-31T06:05:01;0.70;;;0.70;;
1837;SDS011;918;50.796;6.772;2023-03-31T06:07:26;0.70;;;0.50;;
1837;SDS011;918;50.796;6.772;2023-03-31T06:09:52;0.57;;;0.57;;
1837;SDS011;918;50.796;6.772;2023-03-31T06:12:17;1.17;;;0.90;;
1837;SDS011;918;50.796;6.772;2023-03-31T06:14:42;1.07;;;0.73;;
1837;SDS011;918;50.796;6.772;2023-03-31T06:17:08;1.07;;;0.97;;
1837;SDS011;918;50.796;6.772;2023-03-31T06:19:33;3.83;;;1.23;;
1837;SDS011;918;50.796;6.772;2023-03-31T06:21:58;1.37;;;1.00;;
1837;SDS011;918;50.796;6.772;2023-03-31T06:24:24;0.60;;;0.60;;
1837;SDS011;918;50.796;6.772;2023-03-31T06:26:49;1.10;;;0.70;;
1837;SDS011;918;50.796;6.772;2023-03-31T06:29:14;0.63;;;0.63;;
1837;SDS011;918;50.796;6.772;2023-03-31T06:31:39;0.90;;;0.80;;
1837;SDS011;918;50.796;6.772;2023-03-31T06:34:05;0.70;;;0.70;;
1837;SDS011;918;50.796;6.772;2023-03-31T06:36:30;1.30;;;0.90;;
1837;SDS011;918;50.796;6.772;2023-03-31T06:38:56;0.80;;;0.80;;
1837;SDS011;918;50.796;6.772;2023-03-31T06:41:21;0.60;;;0.60;;
1837;SDS011;918;50.796;6.772;2023-03-31T06:43:46;0.70;;;0.63;;
1837;SDS011;918;50.796;6.772;2023-03-31T06:46:13;1.57;;;0.70;;
1837;SDS011;918;50.796;6.772;2023-03-31T06:48:39;1.67;;;1.57;;
1837;SDS011;918;50.796;6.772;2023-03-31T06:51:05;1.03;;;0.93;;
1837;SDS011;918;50.796;6.772;2023-03-31T06:53:31;1.30;;;1.00;;
1837;SDS011;918;50.796;6.772;2023-03-31T06:55:57;2.53;;;0.83;;
1837;SDS011;918;50.796;6.772;2023-03-31T06:58:22;0.70;;;0.70;;
1837;SDS011;918;50.796;6.772;2023-03-31T07:00:47;0.60;;;0.50;;
1837;SDS011;918;50.796;6.772;2023-03-31T07:03:13;1.50;;;0.80;;
1837;SDS011;918;50.796;6.772;2023-03-31T07:05:38;1.23;;;1.00;;
1837;SDS011;918;50.796;6.772;2023-03-31T07:08:04;0.60;;;0.60;;
1837;SDS011;918;50.796;6.772;2023-03-31T07:10:32;1.50;;;0.77;;
1837;SDS011;918;50.796;6.772;2023-03-31T07:12:57;0.97;;;0.83;;
1837;SDS011;918;50.796;6.772;2023-03-31T07:15:22;0.97;;;0.93;;
1837;SDS011;918;50.796;6.772;2023-03-31T07:17:48;1.67;;;1.10;;
1837;SDS011;918;50.796;6.772;2023-03-31T07:20:18;2.87;;;1.10;;
1837;SDS011;918;50.796;6.772;2023-03-31T07:22:44;1.50;;;1.00;;
1837;SDS011;918;50.796;6.772;2023-03-31T07:25:10;1.87;;;1.03;;
1837;SDS011;918;50.796;6.772;2023-03-31T07:27:37;1.67;;;0.93;;
1837;SDS011;918;50.796;6.772;2023-03-31T07:30:06;1.20;;;1.10;;
1837;SDS011;918;50.796;6.772;2023-03-31T07:32:32;1.67;;;1.10;;
1837;SDS011;918;50.796;6.772;2023-03-31T07:34:58;1.93;;;1.37;;
1837;SDS011;918;50.796;6.772;2023-03-31T07:37:23;1.23;;;0.80;;
1837;SDS011;918;50.796;6.772;2023-03-31T07:39:49;1.67;;;1.00;;
1837;SDS011;918;50.796;6.772;2023-03-31T07:42:14;2.57;;;1.30;;
1837;SDS011;918;50.796;6.772;2023-03-31T07:44:40;1.60;;;1.00;;
1837;SDS011;918;50.796;6.772;2023-03-31T07:47:05;1.83;;;1.00;;
1837;SDS011;918;50.796;6.772;2023-03-31T07:49:31;3.23;;;1.10;;
1837;SDS011;918;50.796;6.772;2023-03-31T07:51:58;2.20;;;0.90;;
1837;SDS011;918;50.796;6.772;2023-03-31T07:54:23;2.00;;;1.00;;
1837;SDS011;918;50.796;6.772;2023-03-31T07:56:49;2.27;;;1.10;;
1837;SDS011;918;50.796;6.772;2023-03-31T07:59:14;2.83;;;1.20;;
1837;SDS011;918;50.796;6.772;2023-03-31T08:01:40;3.37;;;1.30;;
1837;SDS011;918;50.796;6.772;2023-03-31T08:04:05;2.83;;;1.20;;
1837;SDS011;918;50.796;6.772;2023-03-31T08:06:30;3.60;;;1.60;;
1837;SDS011;918;50.796;6.772;2023-03-31T08:08:56;4.43;;;1.57;;
1837;SDS011;918;50.796;6.772;2023-03-31T08:11:21;4.63;;;1.63;;
1837;SDS011;918;50.796;6.772;2023-03-31T08:13:48;5.30;;;1.00;;
1837;SDS011;918;50.796;6.772;2023-03-31T08:16:13;1.70;;;1.20;;
1837;SDS011;918;50.796;6.772;2023-03-31T08:18:38;4.77;;;1.70;;
1837;SDS011;918;50.796;6.772;2023-03-31T08:21:03;3.57;;;1.67;;
1837;SDS011;918;50.796;6.772;2023-03-31T08:23:29;2.40;;;1.20;;
1837;SDS011;918;50.796;6.772;2023-03-31T08:25:54;3.13;;;1.30;;
1837;SDS011;918;50.796;6.772;2023-03-31T08:28:19;2.10;;;1.70;;
1837;SDS011;918;50.796;6.772;2023-03-31T08:30:44;3.03;;;1.63;;
1837;SDS011;918;50.796;6.772;2023-03-31T08:33:10;5.37;;;1.87;;
1837;SDS011;918;50.796;6.772;2023-03-31T08:35:36;4.20;;;1.57;;
1837;SDS011;918;50.796;6.772;2023-03-31T08:38:02;6.63;;;1.83;;
1837;SDS011;918;50.796;6.772;2023-03-31T08:40:27;6.03;;;2.30;;
1837;SDS011;918;50.796;6.772;2023-03-31T08:42:59;2.90;;;1.30;;
1837;SDS011;918;50.796;6.772;2023-03-31T08:45:36;3.33;;;2.17;;
1837;SDS011;918;50.796;6.772;2023-03-31T08:48:23;4.93;;;1.87;;
1837;SDS011;918;50.796;6.772;2023-03-31T08:50:52;5.80;;;2.00;;
1837;SDS011;918;50.796;6.772;2023-03-31T08:56:08;4.27;;;1.83;;
1837;SDS011;918;50.796;6.772;2023-03-31T08:58:41;7.30;;;2.23;;
1837;SDS011;918;50.796;6.772;2023-03-31T09:06:03;2.53;;;2.10;;
1837;SDS011;918;50.796;6.772;2023-03-31T09:08:38;4.43;;;2.00;;
1837;SDS011;918;50.796;6.772;2023-03-31T09:11:07;4.93;;;2.40;;
1837;SDS011;918;50.796;6.772;2023-03-31T09:16:32;5.03;;;2.37;;
1837;SDS011;918;50.796;6.772;2023-03-31T09:19:00;6.90;;;1.73;;
1837;SDS011;918;50.796;6.772;2023-03-31T09:24:28;6.97;;;2.30;;
1837;SDS011;918;50.796;6.772;2023-03-31T09:27:02;5.50;;;1.90;;
1837;SDS011;918;50.796;6.772;2023-03-31T09:29:33;3.60;;;1.87;;
1837;SDS011;918;50.796;6.772;2023-03-31T09:32:24;5.13;;;1.90;;
1837;SDS011;918;50.796;6.772;2023-03-31T09:34:52;3.30;;;1.60;;
1837;SDS011;918;50.796;6.772;2023-03-31T09:37:38;2.60;;;1.50;;
1837;SDS011;918;50.796;6.772;2023-03-31T09:40:03;5.57;;;1.77;;
1837;SDS011;918;50.796;6.772;2023-03-31T09:42:34;5.27;;;1.80;;
1837;SDS011;918;50.796;6.772;2023-03-31T09:45:00;7.27;;;2.10;;
1837;SDS011;918;50.796;6.772;2023-03-31T09:47:36;4.80;;;2.10;;
1837;SDS011;918;50.796;6.772;2023-03-31T09:50:06;4.73;;;2.43;;
1837;SDS011;918;50.796;6.772;2023-03-31T09:52:51;3.40;;;1.67;;
1837;SDS011;918;50.796;6.772;2023-03-31T09:55:23;6.10;;;2.00;;
1837;SDS011;918;50.796;6.772;2023-03-31T09:57:50;3.53;;;1.80;;
1837;SDS011;918;50.796;6.772;2023-03-31T10:00:18;5.20;;;2.40;;
1837;SDS011;918;50.796;6.772;2023-03-31T10:02:47;5.50;;;2.20;;
1837;SDS011;918;50.796;6.772;2023-03-31T10:05:27;5.07;;;1.80;;
1837;SDS011;918;50.796;6.772;2023-03-31T10:08:07;5.33;;;2.30;;
1837;SDS011;918;50.796;6.772;2023-03-31T10:10:53;4.13;;;2.00;;
1837;SDS011;918;50.796;6.772;2023-03-31T10:13:24;6.77;;;2.00;;
1837;SDS011;918;50.796;6.772;2023-03-31T10:15:51;6.83;;;2.30;;
1837;SDS011;918;50.796;6.772;2023-03-31T10:18:18;7.40;;;2.33;;
1837;SDS011;918;50.796;6.772;2023-03-31T10:20:48;8.00;;;1.97;;
1837;SDS011;918;50.796;6.772;2023-03-31T10:25:46;5.53;;;1.67;;
1837;SDS011;918;50.796;6.772;2023-03-31T10:28:14;5.60;;;2.20;;
1837;SDS011;918;50.796;6.772;2023-03-31T10:30:41;3.70;;;2.43;;
1837;SDS011;918;50.796;6.772;2023-03-31T10:33:19;4.87;;;1.30;;
1837;SDS011;918;50.796;6.772;2023-03-31T10:35:48;4.43;;;3.13;;
1837;SDS011;918;50.796;6.772;2023-03-31T10:38:26;3.77;;;1.87;;
1837;SDS011;918;50.796;6.772;2023-03-31T10:40:55;1.77;;;1.03;;
1837;SDS011;918;50.796;6.772;2023-03-31T10:43:26;3.53;;;2.23;;
1837;SDS011;918;50.796;6.772;2023-03-31T10:45:58;3.10;;;1.80;;
1837;SDS011;918;50.796;6.772;2023-03-31T10:48:32;3.33;;;1.93;;
1837;SDS011;918;50.796;6.772;2023-03-31T10:51:10;3.07;;;1.60;;
1837;SDS011;918;50.796;6.772;2023-03-31T11:06:54;4.73;;;1.70;;
1837;SDS011;918;50.796;6.772;2023-03-31T11:12:01;3.30;;;2.10;;
1837;SDS011;918;50.796;6.772;2023-03-31T11:17:24;5.83;;;3.60;;
1837;SDS011;918;50.796;6.772;2023-03-31T11:22:48;5.50;;;2.00;;
1837;SDS011;918;50.796;6.772;2023-03-31T11:28:23;8.00;;;2.73;;
1837;SDS011;918;50.796;6.772;2023-03-31T11:36:34;4.77;;;2.10;;
1837;SDS011;918;50.796;6.772;2023-03-31T11:42:02;6.97;;;2.37;;
1837;SDS011;918;50.796;6.772;2023-03-31T11:44:35;5.33;;;2.13;;
1837;SDS011;918;50.796;6.772;2023-03-31T11:47:06;4.10;;;1.93;;
1837;SDS011;918;50.796;6.772;2023-03-31T11:49:54;3.97;;;1.70;;
1837;SDS011;918;50.796;6.772;2023-03-31T11:52:21;5.10;;;2.70;;
1837;SDS011;918;50.796;6.772;2023-03-31T11:55:02;4.57;;;2.40;;
1837;SDS011;918;50.796;6.772;2023-03-31T11:57:31;3.13;;;2.00;;
1837;SDS011;918;50.796;6.772;2023-03-31T12:00:10;7.00;;;2.17;;
1837;SDS011;918;50.796;6.772;2023-03-31T12:02:43;4.87;;;1.90;;
1837;SDS011;918;50.796;6.772;2023-03-31T12:05:09;5.43;;;1.80;;
1837;SDS011;918;50.796;6.772;2023-03-31T12:07:44;6.17;;;2.23;;
1837;SDS011;918;50.796;6.772;2023-03-31T12:10:21;3.87;;;1.60;;
1837;SDS011;918;50.796;6.772;2023-03-31T12:15:38;2.30;;;1.60;;
1837;SDS011;918;50.796;6.772;2023-03-31T12:18:11;7.77;;;2.33;;
1837;SDS011;918;50.796;6.772;2023-03-31T12:20:39;3.80;;;1.67;;
1837;SDS011;918;50.796;6.772;2023-03-31T12:23:11;5.70;;;2.00;;
1837;SDS011;918;50.796;6.772;2023-03-31T12:25:58;4.70;;;2.13;;
1837;SDS011;918;50.796;6.772;2023-03-31T12:28:28;4.20;;;1.60;;
1837;SDS011;918;50.796;6.772;2023-03-31T12:30:55;7.70;;;2.23;;
1837;SDS011;918;50.796;6.772;2023-03-31T12:33:23;5.20;;;1.97;;
1837;SDS011;918;50.796;6.772;2023-03-31T12:38:45;4.80;;;1.73;;
1837;SDS011;918;50.796;6.772;2023-03-31T12:49:42;3.10;;;1.40;;
1837;SDS011;918;50.796;6.772;2023-03-31T12:52:24;4.10;;;2.07;;
1837;SDS011;918;50.796;6.772;2023-03-31T12:55:08;5.67;;;1.83;;
1837;SDS011;918;50.796;6.772;2023-03-31T12:57:45;4.50;;;2.73;;
1837;SDS011;918;50.796;6.772;2023-03-31T13:00:28;3.23;;;2.30;;
1837;SDS011;918;50.796;6.772;2023-03-31T13:03:34;2.07;;;1.03;;
1837;SDS011;918;50.796;6.772;2023-03-31T13:06:11;3.83;;;1.50;;
1837;SDS011;918;50.796;6.772;2023-03-31T13:09:05;4.50;;;1.60;;
1837;SDS011;918;50.796;6.772;2023-03-31T13:11:51;2.20;;;1.40;;
1837;SDS011;918;50.796;6.772;2023-03-31T13:16:49;3.43;;;1.57;;
1837;SDS011;918;50.796;6.772;2023-03-31T13:21:52;4.20;;;1.50;;
1837;SDS011;918;50.796;6.772;2023-03-31T13:24:22;2.67;;;1.70;;
1837;SDS011;918;50.796;6.772;2023-03-31T13:26:49;5.30;;;1.67;;
1837;SDS011;918;50.796;6.772;2023-03-31T13:29:18;2.73;;;1.50;;
1837;SDS011;918;50.796;6.772;2023-03-31T13:32:04;3.70;;;1.50;;
1837;SDS011;918;50.796;6.772;2023-03-31T13:34:31;4.40;;;1.40;;
1837;SDS011;918;50.796;6.772;2023-03-31T13:37:11;3.00;;;1.40;;
1837;SDS011;918;50.796;6.772;2023-03-31T13:42:33;2.93;;;1.60;;
1837;SDS011;918;50.796;6.772;2023-03-31T13:50:59;4.10;;;1.20;;
1837;SDS011;918;50.796;6.772;2023-03-31T14:04:42;2.00;;;1.00;;
1837;SDS011;918;50.796;6.772;2023-03-31T14:07:19;3.20;;;1.40;;
1837;SDS011;918;50.796;6.772;2023-03-31T14:09:46;1.60;;;0.73;;
1837;SDS011;918;50.796;6.772;2023-03-31T14:12:48;1.70;;;0.63;;
1837;SDS011;918;50.796;6.772;2023-03-31T14:15:11;1.03;;;0.80;;
1837;SDS011;918;50.796;6.772;2023-03-31T14:17:42;1.50;;;0.80;;
1837;SDS011;918;50.796;6.772;2023-03-31T14:20:20;2.10;;;1.13;;
1837;SDS011;918;50.796;6.772;2023-03-31T14:33:41;3.23;;;1.10;;
1837;SDS011;918;50.796;6.772;2023-03-31T14:39:03;1.80;;;1.47;;
1837;SDS011;918;50.796;6.772;2023-03-31T14:41:31;2.10;;;1.03;;
1837;SDS011;918;50.796;6.772;2023-03-31T14:43:58;2.80;;;1.10;;
1837;SDS011;918;50.796;6.772;2023-03-31T14:46:25;3.03;;;1.33;;
1837;SDS011;918;50.796;6.772;2023-03-31T14:48:50;2.50;;;1.47;;
1837;SDS011;918;50.796;6.772;2023-03-31T14:51:17;3.20;;;1.50;;
1837;SDS011;918;50.796;6.772;2023-03-31T14:54:00;5.10;;;1.20;;
1837;SDS011;918;50.796;6.772;2023-03-31T14:56:30;5.87;;;1.27;;
1837;SDS011;918;50.796;6.772;2023-03-31T14:58:59;4.87;;;1.70;;
1837;SDS011;918;50.796;6.772;2023-03-31T15:01:28;3.13;;;1.23;;
1837;SDS011;918;50.796;6.772;2023-03-31T15:03:58;5.93;;;1.60;;
1837;SDS011;918;50.796;6.772;2023-03-31T15:06:24;3.97;;;1.93;;
1837;SDS011;918;50.796;6.772;2023-03-31T15:08:50;4.43;;;1.67;;
1837;SDS011;918;50.796;6.772;2023-03-31T15:11:19;2.00;;;1.10;;
1837;SDS011;918;50.796;6.772;2023-03-31T15:13:46;2.93;;;1.47;;
1837;SDS011;918;50.796;6.772;2023-03-31T15:19:02;3.83;;;1.20;;
1837;SDS011;918;50.796;6.772;2023-03-31T15:21:35;2.93;;;1.20;;
1837;SDS011;918;50.796;6.772;2023-03-31T15:24:02;1.90;;;1.30;;
1837;SDS011;918;50.796;6.772;2023-03-31T15:26:29;3.57;;;1.20;;
1837;SDS011;918;50.796;6.772;2023-03-31T15:29:04;2.87;;;1.47;;
1837;SDS011;918;50.796;6.772;2023-03-31T15:31:32;2.07;;;1.40;;
1837;SDS011;918;50.796;6.772;2023-03-31T15:33:58;3.10;;;1.30;;
1837;SDS011;918;50.796;6.772;2023-03-31T15:36:23;2.07;;;1.00;;
1837;SDS011;918;50.796;6.772;2023-03-31T15:38:55;2.67;;;1.17;;
1837;SDS011;918;50.796;6.772;2023-03-31T15:41:22;2.00;;;1.00;;
1837;SDS011;918;50.796;6.772;2023-03-31T15:43:48;2.93;;;1.47;;
1837;SDS011;918;50.796;6.772;2023-03-31T15:47:04;2.20;;;1.13;;
1837;SDS011;918;50.796;6.772;2023-03-31T15:49:02;5.63;;;1.47;;
1837;SDS011;918;50.796;6.772;2023-03-31T15:51:38;2.03;;;1.43;;
1837;SDS011;918;50.796;6.772;2023-03-31T15:56:51;2.33;;;1.07;;
1837;SDS011;918;50.796;6.772;2023-03-31T15:59:21;2.43;;;1.27;;
1837;SDS011;918;50.796;6.772;2023-03-31T16:01:47;2.70;;;1.30;;
1837;SDS011;918;50.796;6.772;2023-03-31T16:04:13;2.60;;;1.50;;
1837;SDS011;918;50.796;6.772;2023-03-31T16:09:08;2.23;;;1.20;;
1837;SDS011;918;50.796;6.772;2023-03-31T16:14:07;1.87;;;1.30;;
1837;SDS011;918;50.796;6.772;2023-03-31T16:16:37;2.60;;;1.00;;
1837;SDS011;918;50.796;6.772;2023-03-31T16:19:03;1.13;;;1.03;;
1837;SDS011;918;50.796;6.772;2023-03-31T16:21:40;2.83;;;1.33;;
1837;SDS011;918;50.796;6.772;2023-03-31T16:24:07;3.97;;;1.23;;
1837;SDS011;918;50.796;6.772;2023-03-31T16:26:33;2.37;;;1.33;;
1837;SDS011;918;50.796;6.772;2023-03-31T16:28:59;1.67;;;0.80;;
1837;SDS011;918;50.796;6.772;2023-03-31T16:31:28;3.30;;;0.97;;
1837;SDS011;918;50.796;6.772;2023-03-31T16:33:58;1.03;;;0.93;;
1837;SDS011;918;50.796;6.772;2023-03-31T16:36:24;1.63;;;1.00;;
1837;SDS011;918;50.796;6.772;2023-03-31T16:38:52;1.60;;;1.00;;
1837;SDS011;918;50.796;6.772;2023-03-31T16:41:18;2.93;;;1.07;;
1837;SDS011;918;50.796;6.772;2023-03-31T16:43:45;6.10;;;1.27;;
1837;SDS011;918;50.796;6.772;2023-03-31T16:46:11;1.93;;;0.80;;
1837;SDS011;918;50.796;6.772;2023-03-31T16:48:36;2.37;;;1.00;;
1837;SDS011;918;50.796;6.772;2023-03-31T16:51:01;4.33;;;1.40;;
1837;SDS011;918;50.796;6.772;2023-03-31T16:53:28;1.17;;;0.77;;
1837;SDS011;918;50.796;6.772;2023-03-31T16:55:55;1.37;;;1.03;;
1837;SDS011;918;50.796;6.772;2023-03-31T16:58:21;2.23;;;1.23;;
1837;SDS011;918;50.796;6.772;2023-03-31T17:00:48;2.53;;;1.07;;
1837;SDS011;918;50.796;6.772;2023-03-31T17:03:13;1.43;;;1.10;;
1837;SDS011;918;50.796;6.772;2023-03-31T17:05:41;2.70;;;1.10;;
1837;SDS011;918;50.796;6.772;2023-03-31T17:08:07;1.83;;;0.90;;
1837;SDS011;918;50.796;6.772;2023-03-31T17:10:34;2.20;;;1.00;;
1837;SDS011;918;50.796;6.772;2023-03-31T17:13:00;1.60;;;1.10;;
1837;SDS011;918;50.796;6.772;2023-03-31T17:15:25;1.90;;;1.20;;
1837;SDS011;918;50.796;6.772;2023-03-31T17:17:53;2.20;;;0.87;;
1837;SDS011;918;50.796;6.772;2023-03-31T17:20:18;2.00;;;0.97;;
1837;SDS011;918;50.796;6.772;2023-03-31T17:22:43;5.30;;;1.13;;
1837;SDS011;918;50.796;6.772;2023-03-31T17:25:10;2.10;;;1.03;;
1837;SDS011;918;50.796;6.772;2023-03-31T17:27:35;2.50;;;1.20;;
1837;SDS011;918;50.796;6.772;2023-03-31T17:30:01;2.40;;;1.10;;
1837;SDS011;918;50.796;6.772;2023-03-31T17:32:27;2.20;;;0.90;;
1837;SDS011;918;50.796;6.772;2023-03-31T17:34:53;2.10;;;1.00;;
1837;SDS011;918;50.796;6.772;2023-03-31T17:37:18;2.30;;;0.90;;
1837;SDS011;918;50.796;6.772;2023-03-31T17:39:44;2.23;;;1.10;;
1837;SDS011;918;50.796;6.772;2023-03-31T17:42:10;3.07;;;1.20;;
1837;SDS011;918;50.796;6.772;2023-03-31T17:44:36;3.97;;;0.90;;
1837;SDS011;918;50.796;6.772;2023-03-31T17:47:02;5.93;;;1.20;;
1837;SDS011;918;50.796;6.772;2023-03-31T17:49:27;1.57;;;0.93;;
1837;SDS011;918;50.796;6.772;2023-03-31T17:51:52;1.43;;;0.80;;
1837;SDS011;918;50.796;6.772;2023-03-31T17:54:18;2.67;;;1.07;;
1837;SDS011;918;50.796;6.772;2023-03-31T17:56:43;1.53;;;0.93;;
1837;SDS011;918;50.796;6.772;2023-03-31T17:59:09;2.93;;;1.20;;
1837;SDS011;918;50.796;6.772;2023-03-31T18:01:35;3.60;;;1.20;;
1837;SDS011;918;50.796;6.772;2023-03-31T18:04:00;2.20;;;2.00;;
1837;SDS011;918;50.796;6.772;2023-03-31T18:06:26;3.40;;;0.80;;
1837;SDS011;918;50.796;6.772;2023-03-31T18:08:51;1.70;;;0.90;;
1837;SDS011;918;50.796;6.772;2023-03-31T18:11:17;1.97;;;0.80;;
1837;SDS011;918;50.796;6.772;2023-03-31T18:13:42;1.70;;;1.60;;
1837;SDS011;918;50.796;6.772;2023-03-31T18:16:08;2.43;;;1.20;;